sensor_id;sensor_type;location;lat;lon;timestamp;P1;durP1;ratioP1;P2;durP2;ratioP2
944;SDS011;459;48.676;9.034;2022-08-25T00:01:43;3.80;;;3.50;;
944;SDS011;459;48.676;9.034;2022-08-25T00:04:11;4.20;;;3.90;;
944;SDS011;459;48.676;9.034;2022-08-25T00:06:37;3.47;;;3.20;;
944;SDS011;459;48.676;9.034;2022-08-25T00:09:03;4.00;;;3.60;;
944;SDS011;459;48.676;9.034;2022-08-25T00:11:30;4.60;;;3.90;;
944;SDS011;459;48.676;9.034;2022-08-25T00:13:57;4.13;;;3.83;;
944;SDS011;459;48.676;9.034;2022-08-25T00:16:22;4.00;;;3.70;;
944;SDS011;459;48.676;9.034;2022-08-25T00:18:49;4.00;;;3.70;;
944;SDS011;459;48.676;9.034;2022-08-25T00:21:15;5.20;;;3.43;;
944;SDS011;459;48.676;9.034;2022-08-25T00:23:41;4.40;;;4.10;;
944;SDS011;459;48.676;9.034;2022-08-25T00:26:06;3.90;;;3.60;;
944;SDS011;459;48.676;9.034;2022-08-25T00:28:31;4.40;;;4.10;;
944;SDS011;459;48.676;9.034;2022-08-25T00:30:57;3.80;;;3.50;;
944;SDS011;459;48.676;9.034;2022-08-25T00:33:23;3.93;;;3.53;;
944;SDS011;459;48.676;9.034;2022-08-25T00:36:07;4.80;;;4.40;;
944;SDS011;459;48.676;9.034;2022-08-25T00:38:33;4.37;;;3.97;;
944;SDS011;459;48.676;9.034;2022-08-25T00:40:58;3.67;;;3.43;;
944;SDS011;459;48.676;9.034;2022-08-25T00:43:33;4.13;;;3.83;;
944;SDS011;459;48.676;9.034;2022-08-25T00:45:59;3.93;;;3.63;;
944;SDS011;459;48.676;9.034;2022-08-25T00:48:24;4.33;;;3.93;;
944;SDS011;459;48.676;9.034;2022-08-25T00:50:49;3.67;;;3.37;;
944;SDS011;459;48.676;9.034;2022-08-25T00:53:14;4.53;;;3.97;;
944;SDS011;459;48.676;9.034;2022-08-25T00:55:39;4.40;;;3.83;;
944;SDS011;459;48.676;9.034;2022-08-25T00:58:13;6.87;;;4.10;;
944;SDS011;459;48.676;9.034;2022-08-25T01:00:41;4.13;;;3.83;;
944;SDS011;459;48.676;9.034;2022-08-25T01:03:07;4.43;;;4.07;;
944;SDS011;459;48.676;9.034;2022-08-25T01:05:32;7.33;;;4.27;;
944;SDS011;459;48.676;9.034;2022-08-25T01:07:58;5.63;;;4.47;;
944;SDS011;459;48.676;9.034;2022-08-25T01:10:28;4.63;;;4.27;;
944;SDS011;459;48.676;9.034;2022-08-25T01:12:55;4.67;;;4.17;;
944;SDS011;459;48.676;9.034;2022-08-25T01:15:22;4.10;;;3.80;;
944;SDS011;459;48.676;9.034;2022-08-25T01:17:50;4.23;;;3.57;;
944;SDS011;459;48.676;9.034;2022-08-25T01:20:16;4.80;;;4.40;;
944;SDS011;459;48.676;9.034;2022-08-25T01:22:43;4.27;;;3.97;;
944;SDS011;459;48.676;9.034;2022-08-25T01:25:16;4.40;;;4.00;;
944;SDS011;459;48.676;9.034;2022-08-25T01:27:44;4.23;;;3.83;;
944;SDS011;459;48.676;9.034;2022-08-25T01:30:10;4.30;;;3.83;;
944;SDS011;459;48.676;9.034;2022-08-25T01:32:35;5.67;;;4.20;;
944;SDS011;459;48.676;9.034;2022-08-25T01:35:00;4.80;;;4.33;;
944;SDS011;459;48.676;9.034;2022-08-25T01:37:25;3.90;;;3.60;;
944;SDS011;459;48.676;9.034;2022-08-25T01:39:51;4.30;;;3.90;;
944;SDS011;459;48.676;9.034;2022-08-25T01:42:23;3.93;;;3.63;;
944;SDS011;459;48.676;9.034;2022-08-25T01:44:52;4.47;;;4.10;;
944;SDS011;459;48.676;9.034;2022-08-25T01:47:17;4.93;;;4.57;;
944;SDS011;459;48.676;9.034;2022-08-25T01:49:42;4.70;;;4.30;;
944;SDS011;459;48.676;9.034;2022-08-25T01:52:15;4.70;;;4.30;;
944;SDS011;459;48.676;9.034;2022-08-25T01:54:43;4.23;;;3.90;;
944;SDS011;459;48.676;9.034;2022-08-25T01:57:08;5.20;;;4.80;;
944;SDS011;459;48.676;9.034;2022-08-25T01:59:33;4.47;;;4.17;;
944;SDS011;459;48.676;9.034;2022-08-25T02:01:58;5.23;;;4.43;;
944;SDS011;459;48.676;9.034;2022-08-25T02:04:23;5.37;;;4.10;;
944;SDS011;459;48.676;9.034;2022-08-25T02:06:49;4.57;;;4.27;;
944;SDS011;459;48.676;9.034;2022-08-25T02:09:14;4.43;;;4.13;;
944;SDS011;459;48.676;9.034;2022-08-25T02:11:40;4.20;;;3.90;;
944;SDS011;459;48.676;9.034;2022-08-25T02:14:06;4.50;;;4.10;;
944;SDS011;459;48.676;9.034;2022-08-25T02:16:33;4.67;;;4.27;;
944;SDS011;459;48.676;9.034;2022-08-25T02:18:58;4.00;;;3.67;;
944;SDS011;459;48.676;9.034;2022-08-25T02:21:23;4.80;;;4.40;;
944;SDS011;459;48.676;9.034;2022-08-25T02:23:49;4.40;;;4.10;;
944;SDS011;459;48.676;9.034;2022-08-25T02:26:14;4.40;;;4.10;;
944;SDS011;459;48.676;9.034;2022-08-25T02:28:47;5.00;;;4.60;;
944;SDS011;459;48.676;9.034;2022-08-25T02:31:12;5.50;;;3.90;;
944;SDS011;459;48.676;9.034;2022-08-25T02:33:38;4.80;;;4.40;;
944;SDS011;459;48.676;9.034;2022-08-25T02:36:04;5.17;;;4.77;;
944;SDS011;459;48.676;9.034;2022-08-25T02:38:29;6.00;;;4.63;;
944;SDS011;459;48.676;9.034;2022-08-25T02:40:55;6.00;;;5.50;;
944;SDS011;459;48.676;9.034;2022-08-25T02:43:20;5.10;;;4.60;;
944;SDS011;459;48.676;9.034;2022-08-25T02:45:45;5.70;;;5.20;;
944;SDS011;459;48.676;9.034;2022-08-25T02:48:10;6.03;;;5.53;;
944;SDS011;459;48.676;9.034;2022-08-25T02:50:36;5.40;;;5.00;;
944;SDS011;459;48.676;9.034;2022-08-25T02:53:01;5.97;;;5.47;;
944;SDS011;459;48.676;9.034;2022-08-25T02:55:26;5.20;;;4.80;;
944;SDS011;459;48.676;9.034;2022-08-25T02:57:51;6.10;;;5.60;;
944;SDS011;459;48.676;9.034;2022-08-25T03:00:16;5.60;;;4.90;;
944;SDS011;459;48.676;9.034;2022-08-25T03:02:42;4.67;;;4.27;;
944;SDS011;459;48.676;9.034;2022-08-25T03:05:08;5.40;;;4.90;;
944;SDS011;459;48.676;9.034;2022-08-25T03:07:34;4.53;;;4.13;;
944;SDS011;459;48.676;9.034;2022-08-25T03:09:59;5.27;;;4.87;;
944;SDS011;459;48.676;9.034;2022-08-25T03:12:27;5.37;;;4.93;;
944;SDS011;459;48.676;9.034;2022-08-25T03:14:53;4.80;;;4.40;;
944;SDS011;459;48.676;9.034;2022-08-25T03:17:18;5.40;;;5.00;;
944;SDS011;459;48.676;9.034;2022-08-25T03:19:44;5.93;;;5.43;;
944;SDS011;459;48.676;9.034;2022-08-25T03:22:09;6.13;;;5.53;;
944;SDS011;459;48.676;9.034;2022-08-25T03:24:34;5.50;;;5.10;;
944;SDS011;459;48.676;9.034;2022-08-25T03:26:59;5.37;;;4.97;;
944;SDS011;459;48.676;9.034;2022-08-25T03:29:26;6.17;;;5.57;;
944;SDS011;459;48.676;9.034;2022-08-25T03:31:52;5.50;;;5.00;;
944;SDS011;459;48.676;9.034;2022-08-25T03:34:19;5.47;;;4.93;;
944;SDS011;459;48.676;9.034;2022-08-25T03:36:45;5.97;;;5.37;;
944;SDS011;459;48.676;9.034;2022-08-25T03:39:10;5.50;;;4.97;;
944;SDS011;459;48.676;9.034;2022-08-25T03:41:36;6.50;;;5.30;;
944;SDS011;459;48.676;9.034;2022-08-25T03:44:02;5.67;;;5.23;;
944;SDS011;459;48.676;9.034;2022-08-25T03:46:29;5.63;;;5.13;;
944;SDS011;459;48.676;9.034;2022-08-25T03:48:55;5.20;;;4.80;;
944;SDS011;459;48.676;9.034;2022-08-25T03:51:26;5.27;;;4.87;;
944;SDS011;459;48.676;9.034;2022-08-25T03:53:51;5.40;;;4.90;;
944;SDS011;459;48.676;9.034;2022-08-25T03:56:17;6.07;;;5.57;;
944;SDS011;459;48.676;9.034;2022-08-25T03:58:42;5.30;;;4.90;;
944;SDS011;459;48.676;9.034;2022-08-25T04:01:07;5.60;;;5.10;;
944;SDS011;459;48.676;9.034;2022-08-25T04:03:33;5.37;;;4.90;;
944;SDS011;459;48.676;9.034;2022-08-25T04:06:02;5.40;;;4.90;;
944;SDS011;459;48.676;9.034;2022-08-25T04:08:28;5.90;;;4.83;;
944;SDS011;459;48.676;9.034;2022-08-25T04:10:53;5.23;;;4.23;;
944;SDS011;459;48.676;9.034;2022-08-25T04:13:19;5.73;;;5.17;;
944;SDS011;459;48.676;9.034;2022-08-25T04:15:44;5.10;;;4.70;;
944;SDS011;459;48.676;9.034;2022-08-25T04:18:09;5.03;;;4.63;;
944;SDS011;459;48.676;9.034;2022-08-25T04:20:36;5.50;;;5.10;;
944;SDS011;459;48.676;9.034;2022-08-25T04:23:01;5.80;;;5.30;;
944;SDS011;459;48.676;9.034;2022-08-25T04:25:26;5.67;;;5.20;;
944;SDS011;459;48.676;9.034;2022-08-25T04:27:52;6.00;;;5.50;;
944;SDS011;459;48.676;9.034;2022-08-25T04:30:17;5.93;;;5.43;;
944;SDS011;459;48.676;9.034;2022-08-25T04:32:42;5.40;;;5.00;;
944;SDS011;459;48.676;9.034;2022-08-25T04:35:08;6.47;;;5.97;;
944;SDS011;459;48.676;9.034;2022-08-25T04:37:33;6.50;;;5.90;;
944;SDS011;459;48.676;9.034;2022-08-25T04:39:58;4.97;;;4.57;;
944;SDS011;459;48.676;9.034;2022-08-25T04:42:24;5.57;;;5.17;;
944;SDS011;459;48.676;9.034;2022-08-25T04:44:50;6.83;;;4.93;;
944;SDS011;459;48.676;9.034;2022-08-25T04:47:16;5.10;;;4.70;;
944;SDS011;459;48.676;9.034;2022-08-25T04:49:41;5.73;;;5.23;;
944;SDS011;459;48.676;9.034;2022-08-25T04:52:06;7.43;;;5.60;;
944;SDS011;459;48.676;9.034;2022-08-25T04:54:31;6.17;;;5.30;;
944;SDS011;459;48.676;9.034;2022-08-25T04:56:56;5.40;;;5.00;;
944;SDS011;459;48.676;9.034;2022-08-25T04:59:22;5.90;;;5.40;;
944;SDS011;459;48.676;9.034;2022-08-25T05:01:47;5.10;;;4.70;;
944;SDS011;459;48.676;9.034;2022-08-25T05:04:13;5.20;;;4.80;;
944;SDS011;459;48.676;9.034;2022-08-25T05:06:39;6.30;;;5.77;;
944;SDS011;459;48.676;9.034;2022-08-25T05:09:04;6.87;;;6.27;;
944;SDS011;459;48.676;9.034;2022-08-25T05:11:30;5.90;;;5.40;;
944;SDS011;459;48.676;9.034;2022-08-25T05:13:56;6.13;;;5.63;;
944;SDS011;459;48.676;9.034;2022-08-25T05:16:22;6.33;;;5.83;;
944;SDS011;459;48.676;9.034;2022-08-25T05:18:48;5.60;;;5.10;;
944;SDS011;459;48.676;9.034;2022-08-25T05:21:16;6.33;;;5.83;;
944;SDS011;459;48.676;9.034;2022-08-25T05:23:41;5.77;;;5.27;;
944;SDS011;459;48.676;9.034;2022-08-25T05:26:08;6.23;;;5.63;;
944;SDS011;459;48.676;9.034;2022-08-25T05:28:34;6.60;;;6.10;;
944;SDS011;459;48.676;9.034;2022-08-25T05:31:00;7.60;;;6.00;;
944;SDS011;459;48.676;9.034;2022-08-25T05:33:26;5.93;;;5.40;;
944;SDS011;459;48.676;9.034;2022-08-25T05:35:51;6.20;;;5.70;;
944;SDS011;459;48.676;9.034;2022-08-25T05:38:16;5.90;;;5.47;;
944;SDS011;459;48.676;9.034;2022-08-25T05:40:42;6.90;;;6.30;;
944;SDS011;459;48.676;9.034;2022-08-25T05:43:07;6.70;;;6.10;;
944;SDS011;459;48.676;9.034;2022-08-25T05:45:32;6.43;;;5.90;;
944;SDS011;459;48.676;9.034;2022-08-25T05:47:57;6.60;;;5.83;;
944;SDS011;459;48.676;9.034;2022-08-25T05:50:22;7.30;;;6.70;;
944;SDS011;459;48.676;9.034;2022-08-25T05:52:47;5.77;;;5.27;;
944;SDS011;459;48.676;9.034;2022-08-25T05:55:13;5.63;;;5.10;;
944;SDS011;459;48.676;9.034;2022-08-25T05:57:39;6.37;;;5.77;;
944;SDS011;459;48.676;9.034;2022-08-25T06:00:04;7.07;;;6.37;;
944;SDS011;459;48.676;9.034;2022-08-25T06:02:30;6.63;;;6.07;;
944;SDS011;459;48.676;9.034;2022-08-25T06:05:13;6.73;;;6.23;;
944;SDS011;459;48.676;9.034;2022-08-25T06:07:39;7.80;;;6.40;;
944;SDS011;459;48.676;9.034;2022-08-25T06:10:05;6.03;;;5.50;;
944;SDS011;459;48.676;9.034;2022-08-25T06:12:31;7.03;;;6.43;;
944;SDS011;459;48.676;9.034;2022-08-25T06:14:57;7.30;;;6.60;;
944;SDS011;459;48.676;9.034;2022-08-25T06:17:22;6.53;;;6.03;;
944;SDS011;459;48.676;9.034;2022-08-25T06:19:48;6.40;;;5.77;;
944;SDS011;459;48.676;9.034;2022-08-25T06:22:13;7.70;;;5.77;;
944;SDS011;459;48.676;9.034;2022-08-25T06:24:38;7.13;;;6.43;;
944;SDS011;459;48.676;9.034;2022-08-25T06:27:03;8.03;;;7.17;;
944;SDS011;459;48.676;9.034;2022-08-25T06:29:29;7.00;;;6.00;;
944;SDS011;459;48.676;9.034;2022-08-25T06:31:54;7.73;;;7.07;;
944;SDS011;459;48.676;9.034;2022-08-25T06:34:19;7.40;;;6.20;;
944;SDS011;459;48.676;9.034;2022-08-25T06:36:44;7.40;;;6.80;;
944;SDS011;459;48.676;9.034;2022-08-25T06:39:09;7.83;;;7.13;;
944;SDS011;459;48.676;9.034;2022-08-25T06:41:35;8.07;;;7.47;;
944;SDS011;459;48.676;9.034;2022-08-25T06:44:00;10.17;;;7.80;;
944;SDS011;459;48.676;9.034;2022-08-25T06:46:26;7.77;;;7.07;;
944;SDS011;459;48.676;9.034;2022-08-25T06:48:55;8.47;;;7.77;;
944;SDS011;459;48.676;9.034;2022-08-25T06:51:21;7.93;;;7.27;;
944;SDS011;459;48.676;9.034;2022-08-25T06:53:47;7.90;;;7.20;;
944;SDS011;459;48.676;9.034;2022-08-25T06:56:13;8.63;;;7.77;;
944;SDS011;459;48.676;9.034;2022-08-25T06:58:39;7.30;;;6.60;;
944;SDS011;459;48.676;9.034;2022-08-25T07:03:32;8.30;;;7.50;;
944;SDS011;459;48.676;9.034;2022-08-25T07:05:57;8.33;;;7.47;;
944;SDS011;459;48.676;9.034;2022-08-25T07:08:22;8.43;;;7.67;;
944;SDS011;459;48.676;9.034;2022-08-25T07:10:48;7.60;;;6.90;;
944;SDS011;459;48.676;9.034;2022-08-25T07:13:13;8.93;;;8.20;;
944;SDS011;459;48.676;9.034;2022-08-25T07:15:39;7.53;;;6.93;;
944;SDS011;459;48.676;9.034;2022-08-25T07:18:05;9.00;;;7.60;;
944;SDS011;459;48.676;9.034;2022-08-25T07:20:32;7.43;;;6.73;;
944;SDS011;459;48.676;9.034;2022-08-25T07:22:57;8.70;;;8.00;;
944;SDS011;459;48.676;9.034;2022-08-25T07:25:22;8.07;;;7.30;;
944;SDS011;459;48.676;9.034;2022-08-25T07:27:48;7.40;;;6.53;;
944;SDS011;459;48.676;9.034;2022-08-25T07:30:13;7.40;;;6.80;;
944;SDS011;459;48.676;9.034;2022-08-25T07:32:38;6.97;;;6.37;;
944;SDS011;459;48.676;9.034;2022-08-25T07:35:03;7.50;;;6.90;;
944;SDS011;459;48.676;9.034;2022-08-25T07:37:46;7.87;;;7.07;;
944;SDS011;459;48.676;9.034;2022-08-25T07:40:22;8.03;;;7.37;;
944;SDS011;459;48.676;9.034;2022-08-25T07:42:49;8.23;;;7.47;;
944;SDS011;459;48.676;9.034;2022-08-25T07:45:15;7.33;;;6.70;;
944;SDS011;459;48.676;9.034;2022-08-25T07:47:41;7.77;;;7.00;;
944;SDS011;459;48.676;9.034;2022-08-25T07:50:07;6.40;;;5.80;;
944;SDS011;459;48.676;9.034;2022-08-25T07:52:33;7.03;;;6.43;;
944;SDS011;459;48.676;9.034;2022-08-25T07:54:59;7.23;;;6.57;;
944;SDS011;459;48.676;9.034;2022-08-25T07:57:24;7.60;;;7.00;;
944;SDS011;459;48.676;9.034;2022-08-25T07:59:51;6.63;;;6.13;;
944;SDS011;459;48.676;9.034;2022-08-25T08:02:16;7.07;;;6.47;;
944;SDS011;459;48.676;9.034;2022-08-25T08:04:41;7.40;;;6.70;;
944;SDS011;459;48.676;9.034;2022-08-25T08:07:08;7.07;;;6.37;;
944;SDS011;459;48.676;9.034;2022-08-25T08:09:33;7.43;;;6.73;;
944;SDS011;459;48.676;9.034;2022-08-25T08:11:58;7.07;;;6.47;;
944;SDS011;459;48.676;9.034;2022-08-25T08:14:23;7.43;;;6.73;;
944;SDS011;459;48.676;9.034;2022-08-25T08:16:48;7.20;;;6.50;;
944;SDS011;459;48.676;9.034;2022-08-25T08:19:14;7.80;;;7.10;;
944;SDS011;459;48.676;9.034;2022-08-25T08:21:40;7.90;;;7.10;;
944;SDS011;459;48.676;9.034;2022-08-25T08:24:05;6.93;;;6.23;;
944;SDS011;459;48.676;9.034;2022-08-25T08:26:30;7.33;;;6.63;;
944;SDS011;459;48.676;9.034;2022-08-25T08:28:56;8.00;;;7.30;;
944;SDS011;459;48.676;9.034;2022-08-25T08:31:22;7.20;;;6.50;;
944;SDS011;459;48.676;9.034;2022-08-25T08:33:48;7.33;;;6.40;;
944;SDS011;459;48.676;9.034;2022-08-25T08:36:15;8.63;;;7.77;;
944;SDS011;459;48.676;9.034;2022-08-25T08:38:41;14.00;;;8.37;;
944;SDS011;459;48.676;9.034;2022-08-25T08:43:55;7.20;;;6.50;;
944;SDS011;459;48.676;9.034;2022-08-25T08:46:23;7.37;;;6.70;;
944;SDS011;459;48.676;9.034;2022-08-25T08:48:51;7.60;;;6.90;;
944;SDS011;459;48.676;9.034;2022-08-25T08:51:23;7.43;;;6.73;;
944;SDS011;459;48.676;9.034;2022-08-25T08:53:56;6.60;;;6.10;;
944;SDS011;459;48.676;9.034;2022-08-25T08:56:41;7.03;;;6.43;;
944;SDS011;459;48.676;9.034;2022-08-25T08:59:20;7.50;;;6.90;;
944;SDS011;459;48.676;9.034;2022-08-25T09:01:47;8.13;;;7.37;;
944;SDS011;459;48.676;9.034;2022-08-25T09:04:14;9.20;;;6.87;;
944;SDS011;459;48.676;9.034;2022-08-25T09:06:42;7.70;;;7.00;;
944;SDS011;459;48.676;9.034;2022-08-25T09:09:09;7.03;;;6.30;;
944;SDS011;459;48.676;9.034;2022-08-25T09:14:19;7.90;;;7.20;;
944;SDS011;459;48.676;9.034;2022-08-25T09:16:50;7.20;;;6.60;;
944;SDS011;459;48.676;9.034;2022-08-25T09:24:48;7.73;;;7.10;;
944;SDS011;459;48.676;9.034;2022-08-25T09:29:53;7.30;;;6.70;;
944;SDS011;459;48.676;9.034;2022-08-25T09:32:20;8.47;;;7.57;;
944;SDS011;459;48.676;9.034;2022-08-25T09:34:46;7.70;;;7.10;;
944;SDS011;459;48.676;9.034;2022-08-25T09:37:11;8.23;;;7.53;;
944;SDS011;459;48.676;9.034;2022-08-25T09:39:36;7.40;;;6.70;;
944;SDS011;459;48.676;9.034;2022-08-25T09:42:03;7.47;;;6.87;;
944;SDS011;459;48.676;9.034;2022-08-25T09:44:32;7.77;;;7.17;;
944;SDS011;459;48.676;9.034;2022-08-25T09:49:34;6.83;;;6.23;;
944;SDS011;459;48.676;9.034;2022-08-25T09:54:44;6.50;;;5.90;;
944;SDS011;459;48.676;9.034;2022-08-25T09:57:09;7.03;;;6.23;;
944;SDS011;459;48.676;9.034;2022-08-25T09:59:50;6.00;;;5.40;;
944;SDS011;459;48.676;9.034;2022-08-25T10:02:21;6.50;;;6.00;;
944;SDS011;459;48.676;9.034;2022-08-25T10:04:47;7.27;;;6.67;;
944;SDS011;459;48.676;9.034;2022-08-25T10:07:29;7.23;;;6.63;;
944;SDS011;459;48.676;9.034;2022-08-25T10:10:00;6.57;;;6.07;;
944;SDS011;459;48.676;9.034;2022-08-25T10:12:29;6.80;;;6.20;;
944;SDS011;459;48.676;9.034;2022-08-25T10:14:56;7.87;;;6.43;;
944;SDS011;459;48.676;9.034;2022-08-25T10:17:28;6.73;;;6.23;;
944;SDS011;459;48.676;9.034;2022-08-25T10:22:35;6.10;;;5.60;;
944;SDS011;459;48.676;9.034;2022-08-25T10:25:02;6.77;;;6.17;;
944;SDS011;459;48.676;9.034;2022-08-25T10:35:11;6.10;;;5.50;;
944;SDS011;459;48.676;9.034;2022-08-25T10:37:44;6.67;;;5.90;;
944;SDS011;459;48.676;9.034;2022-08-25T10:40:15;6.40;;;5.90;;
944;SDS011;459;48.676;9.034;2022-08-25T10:43:07;8.00;;;5.73;;
944;SDS011;459;48.676;9.034;2022-08-25T10:45:32;6.77;;;6.13;;
944;SDS011;459;48.676;9.034;2022-08-25T10:50:41;6.20;;;5.70;;
944;SDS011;459;48.676;9.034;2022-08-25T10:55:55;5.90;;;5.40;;
944;SDS011;459;48.676;9.034;2022-08-25T10:58:43;6.23;;;5.73;;
944;SDS011;459;48.676;9.034;2022-08-25T11:01:14;8.00;;;6.33;;
944;SDS011;459;48.676;9.034;2022-08-25T11:03:46;5.80;;;5.30;;
944;SDS011;459;48.676;9.034;2022-08-25T11:06:19;5.70;;;5.20;;
944;SDS011;459;48.676;9.034;2022-08-25T11:11:21;5.88;;;5.47;;
944;SDS011;459;48.676;9.034;2022-08-25T11:14:02;6.10;;;5.57;;
944;SDS011;459;48.676;9.034;2022-08-25T11:16:34;5.20;;;4.80;;
944;SDS011;459;48.676;9.034;2022-08-25T11:25:16;5.60;;;4.67;;
944;SDS011;459;48.676;9.034;2022-08-25T11:27:16;5.43;;;4.93;;
944;SDS011;459;48.676;9.034;2022-08-25T11:29:45;5.13;;;4.73;;
944;SDS011;459;48.676;9.034;2022-08-25T11:32:12;4.93;;;4.53;;
944;SDS011;459;48.676;9.034;2022-08-25T11:34:39;6.27;;;5.00;;
944;SDS011;459;48.676;9.034;2022-08-25T11:37:06;4.83;;;4.43;;
944;SDS011;459;48.676;9.034;2022-08-25T11:47:26;11.23;;;4.33;;
944;SDS011;459;48.676;9.034;2022-08-25T11:50:00;4.63;;;4.27;;
944;SDS011;459;48.676;9.034;2022-08-25T11:54:55;4.87;;;4.53;;
944;SDS011;459;48.676;9.034;2022-08-25T11:57:22;4.70;;;4.30;;
944;SDS011;459;48.676;9.034;2022-08-25T12:04:51;6.33;;;5.10;;
944;SDS011;459;48.676;9.034;2022-08-25T12:07:20;5.87;;;5.47;;
944;SDS011;459;48.676;9.034;2022-08-25T12:17:42;4.50;;;4.10;;
944;SDS011;459;48.676;9.034;2022-08-25T12:20:08;4.10;;;3.80;;
944;SDS011;459;48.676;9.034;2022-08-25T12:25:07;3.85;;;3.45;;
944;SDS011;459;48.676;9.034;2022-08-25T12:27:39;3.63;;;3.40;;
944;SDS011;459;48.676;9.034;2022-08-25T12:30:15;4.60;;;4.20;;
944;SDS011;459;48.676;9.034;2022-08-25T12:35:16;4.57;;;4.17;;
944;SDS011;459;48.676;9.034;2022-08-25T12:37:56;3.83;;;3.53;;
944;SDS011;459;48.676;9.034;2022-08-25T12:41:06;3.70;;;3.40;;
944;SDS011;459;48.676;9.034;2022-08-25T12:45:51;4.33;;;4.00;;
944;SDS011;459;48.676;9.034;2022-08-25T12:51:05;3.53;;;3.23;;
944;SDS011;459;48.676;9.034;2022-08-25T12:53:40;4.00;;;3.70;;
944;SDS011;459;48.676;9.034;2022-08-25T12:56:07;3.40;;;3.20;;
944;SDS011;459;48.676;9.034;2022-08-25T12:58:35;3.90;;;3.60;;
944;SDS011;459;48.676;9.034;2022-08-25T13:01:12;3.90;;;3.60;;
944;SDS011;459;48.676;9.034;2022-08-25T13:07:11;3.40;;;3.20;;
944;SDS011;459;48.676;9.034;2022-08-25T13:09:17;3.57;;;3.30;;
944;SDS011;459;48.676;9.034;2022-08-25T13:11:52;3.80;;;3.50;;
944;SDS011;459;48.676;9.034;2022-08-25T13:16:52;3.85;;;3.50;;
944;SDS011;459;48.676;9.034;2022-08-25T13:19:17;3.50;;;3.20;;
944;SDS011;459;48.676;9.034;2022-08-25T13:21:43;4.10;;;3.73;;
944;SDS011;459;48.676;9.034;2022-08-25T13:24:20;3.60;;;3.23;;
944;SDS011;459;48.676;9.034;2022-08-25T13:26:46;4.90;;;3.93;;
944;SDS011;459;48.676;9.034;2022-08-25T13:29:22;4.27;;;3.87;;
944;SDS011;459;48.676;9.034;2022-08-25T13:31:58;3.80;;;3.50;;
944;SDS011;459;48.676;9.034;2022-08-25T13:34:25;3.80;;;3.60;;
944;SDS011;459;48.676;9.034;2022-08-25T13:36:51;3.53;;;3.23;;
944;SDS011;459;48.676;9.034;2022-08-25T13:39:35;3.70;;;3.40;;
944;SDS011;459;48.676;9.034;2022-08-25T13:42:05;4.00;;;3.43;;
944;SDS011;459;48.676;9.034;2022-08-25T13:44:35;3.73;;;3.43;;
944;SDS011;459;48.676;9.034;2022-08-25T13:47:16;4.30;;;3.60;;
944;SDS011;459;48.676;9.034;2022-08-25T13:49:42;3.77;;;3.47;;
944;SDS011;459;48.676;9.034;2022-08-25T13:52:13;3.60;;;3.30;;
944;SDS011;459;48.676;9.034;2022-08-25T13:54:40;3.63;;;3.43;;
944;SDS011;459;48.676;9.034;2022-08-25T13:57:09;3.83;;;3.53;;
944;SDS011;459;48.676;9.034;2022-08-25T13:59:36;4.00;;;3.70;;
944;SDS011;459;48.676;9.034;2022-08-25T14:02:02;4.40;;;4.00;;
944;SDS011;459;48.676;9.034;2022-08-25T14:04:42;3.80;;;3.50;;
944;SDS011;459;48.676;9.034;2022-08-25T14:09:47;4.10;;;3.80;;
944;SDS011;459;48.676;9.034;2022-08-25T14:12:25;4.73;;;4.10;;
944;SDS011;459;48.676;9.034;2022-08-25T14:17:46;4.80;;;3.43;;
944;SDS011;459;48.676;9.034;2022-08-25T14:20:20;4.23;;;3.93;;
944;SDS011;459;48.676;9.034;2022-08-25T14:22:48;3.50;;;3.30;;
944;SDS011;459;48.676;9.034;2022-08-25T14:25:15;4.10;;;3.80;;
944;SDS011;459;48.676;9.034;2022-08-25T14:27:41;3.63;;;3.33;;
944;SDS011;459;48.676;9.034;2022-08-25T14:30:07;3.50;;;3.20;;
944;SDS011;459;48.676;9.034;2022-08-25T14:32:32;3.30;;;3.00;;
944;SDS011;459;48.676;9.034;2022-08-25T14:34:58;4.30;;;3.40;;
944;SDS011;459;48.676;9.034;2022-08-25T14:37:23;3.23;;;3.03;;
944;SDS011;459;48.676;9.034;2022-08-25T14:39:49;3.60;;;3.30;;
944;SDS011;459;48.676;9.034;2022-08-25T14:42:14;3.67;;;3.40;;
944;SDS011;459;48.676;9.034;2022-08-25T14:44:40;3.70;;;3.40;;
944;SDS011;459;48.676;9.034;2022-08-25T14:47:05;3.43;;;3.20;;
944;SDS011;459;48.676;9.034;2022-08-25T14:49:31;3.23;;;3.03;;
944;SDS011;459;48.676;9.034;2022-08-25T14:52:03;3.70;;;3.03;;
944;SDS011;459;48.676;9.034;2022-08-25T14:54:30;3.83;;;3.53;;
944;SDS011;459;48.676;9.034;2022-08-25T14:56:55;3.53;;;3.23;;
944;SDS011;459;48.676;9.034;2022-08-25T14:59:21;3.20;;;3.00;;
944;SDS011;459;48.676;9.034;2022-08-25T15:01:46;3.40;;;3.10;;
944;SDS011;459;48.676;9.034;2022-08-25T15:04:14;3.70;;;3.50;;
944;SDS011;459;48.676;9.034;2022-08-25T15:06:40;3.33;;;3.03;;
944;SDS011;459;48.676;9.034;2022-08-25T15:09:07;3.00;;;2.70;;
944;SDS011;459;48.676;9.034;2022-08-25T15:11:35;4.17;;;3.87;;
944;SDS011;459;48.676;9.034;2022-08-25T15:14:00;3.53;;;3.33;;
944;SDS011;459;48.676;9.034;2022-08-25T15:16:27;3.17;;;2.87;;
944;SDS011;459;48.676;9.034;2022-08-25T15:18:53;3.50;;;3.20;;
944;SDS011;459;48.676;9.034;2022-08-25T15:21:18;3.60;;;3.30;;
944;SDS011;459;48.676;9.034;2022-08-25T15:23:43;3.23;;;3.00;;
944;SDS011;459;48.676;9.034;2022-08-25T15:26:09;2.70;;;2.50;;
944;SDS011;459;48.676;9.034;2022-08-25T15:28:37;3.53;;;3.23;;
944;SDS011;459;48.676;9.034;2022-08-25T15:31:03;3.30;;;2.97;;
944;SDS011;459;48.676;9.034;2022-08-25T15:33:28;3.60;;;3.30;;
944;SDS011;459;48.676;9.034;2022-08-25T15:35:53;4.20;;;3.90;;
944;SDS011;459;48.676;9.034;2022-08-25T15:38:19;3.80;;;3.43;;
944;SDS011;459;48.676;9.034;2022-08-25T15:40:44;4.50;;;3.03;;
944;SDS011;459;48.676;9.034;2022-08-25T15:43:09;3.30;;;3.10;;
944;SDS011;459;48.676;9.034;2022-08-25T15:45:34;3.13;;;2.93;;
944;SDS011;459;48.676;9.034;2022-08-25T15:48:00;3.40;;;3.20;;
944;SDS011;459;48.676;9.034;2022-08-25T15:50:25;3.60;;;3.30;;
944;SDS011;459;48.676;9.034;2022-08-25T15:52:50;3.57;;;3.37;;
944;SDS011;459;48.676;9.034;2022-08-25T15:55:16;3.60;;;3.40;;
944;SDS011;459;48.676;9.034;2022-08-25T15:57:41;3.20;;;3.00;;
944;SDS011;459;48.676;9.034;2022-08-25T16:00:07;3.00;;;2.80;;
944;SDS011;459;48.676;9.034;2022-08-25T16:02:35;4.13;;;3.80;;
944;SDS011;459;48.676;9.034;2022-08-25T16:05:00;4.33;;;3.90;;
944;SDS011;459;48.676;9.034;2022-08-25T16:07:25;3.33;;;3.13;;
944;SDS011;459;48.676;9.034;2022-08-25T16:09:54;3.23;;;3.03;;
944;SDS011;459;48.676;9.034;2022-08-25T16:12:19;4.73;;;4.00;;
944;SDS011;459;48.676;9.034;2022-08-25T16:14:44;4.00;;;3.70;;
944;SDS011;459;48.676;9.034;2022-08-25T16:17:09;4.00;;;3.70;;
944;SDS011;459;48.676;9.034;2022-08-25T16:19:34;3.90;;;3.53;;
944;SDS011;459;48.676;9.034;2022-08-25T16:22:00;4.50;;;4.07;;
944;SDS011;459;48.676;9.034;2022-08-25T16:24:25;4.30;;;3.90;;
944;SDS011;459;48.676;9.034;2022-08-25T16:26:51;3.90;;;3.60;;
944;SDS011;459;48.676;9.034;2022-08-25T16:29:17;4.10;;;3.80;;
944;SDS011;459;48.676;9.034;2022-08-25T16:31:43;3.80;;;3.50;;
944;SDS011;459;48.676;9.034;2022-08-25T16:34:08;5.23;;;3.60;;
944;SDS011;459;48.676;9.034;2022-08-25T16:36:33;3.07;;;2.87;;
944;SDS011;459;48.676;9.034;2022-08-25T16:39:00;4.17;;;3.87;;
944;SDS011;459;48.676;9.034;2022-08-25T16:41:27;4.33;;;4.03;;
944;SDS011;459;48.676;9.034;2022-08-25T16:43:58;5.40;;;4.43;;
944;SDS011;459;48.676;9.034;2022-08-25T16:46:23;4.63;;;4.27;;
944;SDS011;459;48.676;9.034;2022-08-25T16:48:48;4.80;;;4.47;;
944;SDS011;459;48.676;9.034;2022-08-25T16:51:15;5.07;;;4.67;;
944;SDS011;459;48.676;9.034;2022-08-25T16:53:41;4.60;;;4.20;;
944;SDS011;459;48.676;9.034;2022-08-25T16:56:24;3.87;;;3.57;;
944;SDS011;459;48.676;9.034;2022-08-25T16:58:51;3.57;;;3.33;;
944;SDS011;459;48.676;9.034;2022-08-25T17:01:18;3.33;;;3.13;;
944;SDS011;459;48.676;9.034;2022-08-25T17:03:43;3.67;;;3.33;;
944;SDS011;459;48.676;9.034;2022-08-25T17:06:08;3.77;;;3.47;;
944;SDS011;459;48.676;9.034;2022-08-25T17:08:34;4.07;;;3.70;;
944;SDS011;459;48.676;9.034;2022-08-25T17:11:07;4.70;;;3.60;;
944;SDS011;459;48.676;9.034;2022-08-25T17:13:33;3.90;;;3.60;;
944;SDS011;459;48.676;9.034;2022-08-25T17:15:58;4.03;;;3.73;;